Samadhi — ZCOY9 — position and weather

sailwx.info

Track history (hours):
 
Tides and Currents Weather Stations Pressure Air Temp Water Temp Dewpoint Dewpoint Depression Visibility Wind Speed Wind Dir Waves Ship Positions

Samadhi

Last reported at 2016-Sep-25 21:28 UTC. Time now 2016-Sep-26 03:40 UTC.
Position N 43°53' E 008°01'.

Length 61 m; draft 3.3 m.

Type: Pleasure craft. MMSI: 319420000.

Date/timePositionNaut miles runAvg speedWind from/ knotsBaromVisibWave heightAir tempDewpointWater temp
2016-Sep-25 21:28N 43°53' E 008°01'33 3.6
2016-Sep-25 12:22N 43°39' E 007°20'8 9.0
2016-Sep-25 11:31N 43°39' E 007°10'0 0.0
2016-Sep-25 10:31N 43°39' E 007°10'5 5.2
2016-Sep-25 09:33N 43°34' E 007°09'2 1.1
2016-Sep-25 07:23N 43°33' E 007°07'0 0.0
2016-Sep-25 04:29N 43°33' E 007°07'0 0.0
2016-Sep-25 00:29N 43°33' E 007°07'0 0.0
2016-Sep-24 22:29N 43°33' E 007°07'0 0.0
2016-Sep-24 21:23N 43°33' E 007°07'0 0.0
2016-Sep-24 19:29N 43°33' E 007°07'0 0.0
2016-Sep-24 18:29N 43°33' E 007°07'0 0.0
2016-Sep-24 17:29N 43°33' E 007°07'0 0.0
2016-Sep-24 16:29N 43°33' E 007°07'0 0.0
2016-Sep-24 14:29N 43°33' E 007°07'0 0.0
2016-Sep-24 12:29N 43°33' E 007°07'0 0.0
2016-Sep-24 10:29N 43°33' E 007°07'0 0.0
2016-Sep-24 09:23N 43°33' E 007°07'0 0.0
2016-Sep-24 03:29N 43°33' E 007°07'0 0.0
2016-Sep-24 02:23N 43°33' E 007°07'0 0.0
2016-Sep-24 01:29N 43°33' E 007°07'0 0.0
2016-Sep-24 00:29N 43°33' E 007°07'0 0.0
2016-Sep-23 19:29N 43°33' E 007°07'0 0.0
2016-Sep-23 17:23N 43°33' E 007°07'0 0.0
2016-Sep-23 16:17N 43°33' E 007°07'0 0.3
2016-Sep-23 15:33N 43°33' E 007°07'14 2.2
2016-Sep-23 09:04N 43°43' E 007°21'0 0.0
2016-Sep-23 06:10N 43°43' E 007°21'0 0.0
2016-Sep-23 03:10N 43°43' E 007°21'0 0.0
2016-Sep-23 02:28N 43°43' E 007°21'0 0.0
2016-Sep-23 01:16N 43°43' E 007°21'2 3.4
2016-Sep-23 00:33N 43°40' E 007°21'1312.7
2016-Sep-22 23:33N 43°32' E 007°08'1 0.4
2016-Sep-22 20:32N 43°33' E 007°07'1 0.2
2016-Sep-22 12:28N 43°34' E 007°09'13 1.1
2016-Sep-22 00:32N 43°43' E 007°21'0 0.0
2016-Sep-21 23:32N 43°43' E 007°21'0 0.0
2016-Sep-21 22:14N 43°43' E 007°21'0 0.0
2016-Sep-21 19:32N 43°43' E 007°21'0 0.0
2016-Sep-21 16:08N 43°43' E 007°21'31 0.8
2016-Sep-20 02:23N 43°53' E 008°01'0 0.0
2016-Sep-19 19:26N 43°53' E 008°01'0 0.0
2016-Sep-19 18:32N 43°53' E 008°01'0 0.0
2016-Sep-19 16:26N 43°53' E 008°01'0 0.0
2016-Sep-19 14:32N 43°53' E 008°01'0 0.0
2016-Sep-19 13:32N 43°53' E 008°01'0 0.0
2016-Sep-19 12:32N 43°53' E 008°01'0 0.0
2016-Sep-19 11:29N 43°53' E 008°01'  
Track history (hours):
 
Tides and Currents Weather Stations Pressure Air Temp Water Temp Dewpoint Dewpoint Depression Visibility Wind Speed Wind Dir Waves Ship Positions

Samadhi

Last reported at 2016-Sep-25 21:28 UTC. Time now 2016-Sep-26 03:40 UTC.
Position N 43°53' E 008°01'.

Length 61 m; draft 3.3 m.

Type: Pleasure craft. MMSI: 319420000.

Date/timePositionNaut miles runAvg speedWind from/ knotsBaromVisibWave heightAir tempDewpointWater temp
2016-Sep-25 21:28N 43°53' E 008°01'33 3.6
2016-Sep-25 12:22N 43°39' E 007°20'8 9.0
2016-Sep-25 11:31N 43°39' E 007°10'0 0.0
2016-Sep-25 10:31N 43°39' E 007°10'5 5.2
2016-Sep-25 09:33N 43°34' E 007°09'2 1.1
2016-Sep-25 07:23N 43°33' E 007°07'0 0.0
2016-Sep-25 04:29N 43°33' E 007°07'0 0.0
2016-Sep-25 00:29N 43°33' E 007°07'0 0.0
2016-Sep-24 22:29N 43°33' E 007°07'0 0.0
2016-Sep-24 21:23N 43°33' E 007°07'0 0.0
2016-Sep-24 19:29N 43°33' E 007°07'0 0.0
2016-Sep-24 18:29N 43°33' E 007°07'0 0.0
2016-Sep-24 17:29N 43°33' E 007°07'0 0.0
2016-Sep-24 16:29N 43°33' E 007°07'0 0.0
2016-Sep-24 14:29N 43°33' E 007°07'0 0.0
2016-Sep-24 12:29N 43°33' E 007°07'0 0.0
2016-Sep-24 10:29N 43°33' E 007°07'0 0.0
2016-Sep-24 09:23N 43°33' E 007°07'0 0.0
2016-Sep-24 03:29N 43°33' E 007°07'0 0.0
2016-Sep-24 02:23N 43°33' E 007°07'0 0.0
2016-Sep-24 01:29N 43°33' E 007°07'0 0.0
2016-Sep-24 00:29N 43°33' E 007°07'0 0.0
2016-Sep-23 19:29N 43°33' E 007°07'0 0.0
2016-Sep-23 17:23N 43°33' E 007°07'0 0.0
2016-Sep-23 16:17N 43°33' E 007°07'0 0.3
2016-Sep-23 15:33N 43°33' E 007°07'14 2.2
2016-Sep-23 09:04N 43°43' E 007°21'0 0.0
2016-Sep-23 06:10N 43°43' E 007°21'0 0.0
2016-Sep-23 03:10N 43°43' E 007°21'0 0.0
2016-Sep-23 02:28N 43°43' E 007°21'0 0.0
2016-Sep-23 01:16N 43°43' E 007°21'2 3.4
2016-Sep-23 00:33N 43°40' E 007°21'1312.7
2016-Sep-22 23:33N 43°32' E 007°08'1 0.4
2016-Sep-22 20:32N 43°33' E 007°07'1 0.2
2016-Sep-22 12:28N 43°34' E 007°09'13 1.1
2016-Sep-22 00:32N 43°43' E 007°21'0 0.0
2016-Sep-21 23:32N 43°43' E 007°21'0 0.0
2016-Sep-21 22:14N 43°43' E 007°21'0 0.0
2016-Sep-21 19:32N 43°43' E 007°21'0 0.0
2016-Sep-21 16:08N 43°43' E 007°21'31 0.8
2016-Sep-20 02:23N 43°53' E 008°01'0 0.0
2016-Sep-19 19:26N 43°53' E 008°01'0 0.0
2016-Sep-19 18:32N 43°53' E 008°01'0 0.0
2016-Sep-19 16:26N 43°53' E 008°01'0 0.0
2016-Sep-19 14:32N 43°53' E 008°01'0 0.0
2016-Sep-19 13:32N 43°53' E 008°01'0 0.0
2016-Sep-19 12:32N 43°53' E 008°01'0 0.0
2016-Sep-19 11:29N 43°53' E 008°01'  

Dump ship's entire track history